sensor_id;sensor_type;location;lat;lon;timestamp;temperature;humidity
13462;DHT22;6803;45.264;5.468;2023-01-26T00:01:11;1.90;99.90
13462;DHT22;6803;45.264;5.468;2023-01-26T00:03:43;1.90;99.90
13462;DHT22;6803;45.264;5.468;2023-01-26T00:06:16;1.90;99.90
13462;DHT22;6803;45.264;5.468;2023-01-26T00:08:49;1.90;99.90
13462;DHT22;6803;45.264;5.468;2023-01-26T00:11:22;1.90;99.90
13462;DHT22;6803;45.264;5.468;2023-01-26T00:13:56;1.90;99.90
13462;DHT22;6803;45.264;5.468;2023-01-26T00:16:27;1.90;99.90
13462;DHT22;6803;45.264;5.468;2023-01-26T00:18:58;1.90;99.90
13462;DHT22;6803;45.264;5.468;2023-01-26T00:21:29;1.80;99.90
13462;DHT22;6803;45.264;5.468;2023-01-26T00:24:00;1.90;99.90
13462;DHT22;6803;45.264;5.468;2023-01-26T00:26:31;1.80;99.90
13462;DHT22;6803;45.264;5.468;2023-01-26T00:29:02;1.80;99.90
13462;DHT22;6803;45.264;5.468;2023-01-26T00:31:32;1.90;99.90
13462;DHT22;6803;45.264;5.468;2023-01-26T00:34:03;1.90;99.90
13462;DHT22;6803;45.264;5.468;2023-01-26T00:36:34;1.90;99.90
13462;DHT22;6803;45.264;5.468;2023-01-26T00:39:05;1.90;99.90
13462;DHT22;6803;45.264;5.468;2023-01-26T00:41:36;1.90;99.90
13462;DHT22;6803;45.264;5.468;2023-01-26T00:44:24;1.90;99.90
13462;DHT22;6803;45.264;5.468;2023-01-26T00:46:55;1.90;99.90
13462;DHT22;6803;45.264;5.468;2023-01-26T00:49:26;1.90;99.90
13462;DHT22;6803;45.264;5.468;2023-01-26T00:51:56;1.80;99.90
13462;DHT22;6803;45.264;5.468;2023-01-26T00:54:28;1.90;99.90
13462;DHT22;6803;45.264;5.468;2023-01-26T00:56:59;1.90;99.90
13462;DHT22;6803;45.264;5.468;2023-01-26T00:59:29;1.80;99.90
13462;DHT22;6803;45.264;5.468;2023-01-26T01:02:02;1.90;99.90
13462;DHT22;6803;45.264;5.468;2023-01-26T01:04:33;1.90;99.90
13462;DHT22;6803;45.264;5.468;2023-01-26T01:07:04;1.90;99.90
13462;DHT22;6803;45.264;5.468;2023-01-26T01:09:34;1.80;99.90
13462;DHT22;6803;45.264;5.468;2023-01-26T01:12:06;1.90;99.90
13462;DHT22;6803;45.264;5.468;2023-01-26T01:14:37;1.80;99.90
13462;DHT22;6803;45.264;5.468;2023-01-26T01:17:07;1.80;99.90
13462;DHT22;6803;45.264;5.468;2023-01-26T01:19:39;1.90;99.90
13462;DHT22;6803;45.264;5.468;2023-01-26T01:22:10;1.90;99.90
13462;DHT22;6803;45.264;5.468;2023-01-26T01:24:41;1.80;99.90
13462;DHT22;6803;45.264;5.468;2023-01-26T01:27:12;1.80;99.90
13462;DHT22;6803;45.264;5.468;2023-01-26T01:29:42;1.90;99.90
13462;DHT22;6803;45.264;5.468;2023-01-26T01:32:13;1.80;99.90
13462;DHT22;6803;45.264;5.468;2023-01-26T01:34:46;1.80;99.90
13462;DHT22;6803;45.264;5.468;2023-01-26T01:37:17;1.90;99.90
13462;DHT22;6803;45.264;5.468;2023-01-26T01:39:49;1.80;99.90
13462;DHT22;6803;45.264;5.468;2023-01-26T01:42:21;1.80;99.90
13462;DHT22;6803;45.264;5.468;2023-01-26T01:48:18;1.80;99.90
13462;DHT22;6803;45.264;5.468;2023-01-26T01:50:50;1.90;99.90
13462;DHT22;6803;45.264;5.468;2023-01-26T01:53:25;1.90;99.90
13462;DHT22;6803;45.264;5.468;2023-01-26T01:55:57;1.90;99.90
13462;DHT22;6803;45.264;5.468;2023-01-26T01:58:30;1.80;99.90
13462;DHT22;6803;45.264;5.468;2023-01-26T02:01:02;1.80;99.90
13462;DHT22;6803;45.264;5.468;2023-01-26T02:03:34;1.90;99.90
13462;DHT22;6803;45.264;5.468;2023-01-26T02:06:09;1.90;99.90
13462;DHT22;6803;45.264;5.468;2023-01-26T02:08:42;1.90;99.90
13462;DHT22;6803;45.264;5.468;2023-01-26T02:11:15;1.80;99.90
13462;DHT22;6803;45.264;5.468;2023-01-26T02:13:48;1.90;99.90
13462;DHT22;6803;45.264;5.468;2023-01-26T02:16:20;1.80;99.90
13462;DHT22;6803;45.264;5.468;2023-01-26T02:18:51;1.80;99.90
13462;DHT22;6803;45.264;5.468;2023-01-26T02:21:23;1.90;99.90
13462;DHT22;6803;45.264;5.468;2023-01-26T02:24:05;1.80;99.90
13462;DHT22;6803;45.264;5.468;2023-01-26T02:26:37;1.80;99.90
13462;DHT22;6803;45.264;5.468;2023-01-26T02:29:10;1.80;99.90
13462;DHT22;6803;45.264;5.468;2023-01-26T02:31:41;1.80;99.90
13462;DHT22;6803;45.264;5.468;2023-01-26T02:34:12;1.70;99.90
13462;DHT22;6803;45.264;5.468;2023-01-26T02:36:43;1.70;99.90
13462;DHT22;6803;45.264;5.468;2023-01-26T02:39:21;1.70;99.90
13462;DHT22;6803;45.264;5.468;2023-01-26T02:41:53;1.70;99.90
13462;DHT22;6803;45.264;5.468;2023-01-26T02:45:00;1.70;99.90
13462;DHT22;6803;45.264;5.468;2023-01-26T02:47:30;1.70;99.90
13462;DHT22;6803;45.264;5.468;2023-01-26T02:50:01;1.70;99.90
13462;DHT22;6803;45.264;5.468;2023-01-26T02:52:32;1.70;99.90
13462;DHT22;6803;45.264;5.468;2023-01-26T02:55:03;1.80;99.90
13462;DHT22;6803;45.264;5.468;2023-01-26T02:57:55;1.70;99.90
13462;DHT22;6803;45.264;5.468;2023-01-26T03:00:45;1.70;99.90
13462;DHT22;6803;45.264;5.468;2023-01-26T03:03:18;1.70;99.90
13462;DHT22;6803;45.264;5.468;2023-01-26T03:05:49;1.70;99.90
13462;DHT22;6803;45.264;5.468;2023-01-26T03:08:20;1.70;99.90
13462;DHT22;6803;45.264;5.468;2023-01-26T03:10:51;1.70;99.90
13462;DHT22;6803;45.264;5.468;2023-01-26T03:13:22;1.70;99.90
13462;DHT22;6803;45.264;5.468;2023-01-26T03:15:54;1.70;99.90
13462;DHT22;6803;45.264;5.468;2023-01-26T03:18:27;1.80;99.90
13462;DHT22;6803;45.264;5.468;2023-01-26T03:21:23;1.80;99.90
13462;DHT22;6803;45.264;5.468;2023-01-26T03:24:12;1.80;99.90
13462;DHT22;6803;45.264;5.468;2023-01-26T03:27:01;1.80;99.90
13462;DHT22;6803;45.264;5.468;2023-01-26T03:29:49;1.80;99.90
13462;DHT22;6803;45.264;5.468;2023-01-26T03:32:20;1.80;99.90
13462;DHT22;6803;45.264;5.468;2023-01-26T03:34:51;1.80;99.90
13462;DHT22;6803;45.264;5.468;2023-01-26T03:37:22;1.80;99.90
13462;DHT22;6803;45.264;5.468;2023-01-26T03:39:53;1.80;99.90
13462;DHT22;6803;45.264;5.468;2023-01-26T03:42:41;1.80;99.90
13462;DHT22;6803;45.264;5.468;2023-01-26T03:45:30;1.80;99.90
13462;DHT22;6803;45.264;5.468;2023-01-26T03:48:18;1.80;99.90
13462;DHT22;6803;45.264;5.468;2023-01-26T03:51:06;1.70;99.90
13462;DHT22;6803;45.264;5.468;2023-01-26T03:53:54;1.70;99.90
13462;DHT22;6803;45.264;5.468;2023-01-26T03:56:42;1.70;99.90
13462;DHT22;6803;45.264;5.468;2023-01-26T03:59:13;1.70;99.90
13462;DHT22;6803;45.264;5.468;2023-01-26T04:01:46;1.70;99.90
13462;DHT22;6803;45.264;5.468;2023-01-26T04:04:34;1.70;99.90
13462;DHT22;6803;45.264;5.468;2023-01-26T04:07:23;1.70;99.90
13462;DHT22;6803;45.264;5.468;2023-01-26T04:10:11;1.80;99.90
13462;DHT22;6803;45.264;5.468;2023-01-26T04:12:42;1.80;99.90
13462;DHT22;6803;45.264;5.468;2023-01-26T04:15:12;1.80;99.90
13462;DHT22;6803;45.264;5.468;2023-01-26T04:18:06;1.80;99.90
13462;DHT22;6803;45.264;5.468;2023-01-26T04:20:54;1.80;99.90
13462;DHT22;6803;45.264;5.468;2023-01-26T04:23:42;1.80;99.90
13462;DHT22;6803;45.264;5.468;2023-01-26T04:26:14;1.80;99.90
13462;DHT22;6803;45.264;5.468;2023-01-26T04:28:44;1.80;99.90
13462;DHT22;6803;45.264;5.468;2023-01-26T04:31:15;1.80;99.90
13462;DHT22;6803;45.264;5.468;2023-01-26T04:33:46;1.80;99.90
13462;DHT22;6803;45.264;5.468;2023-01-26T04:36:16;1.80;99.90
13462;DHT22;6803;45.264;5.468;2023-01-26T04:38:47;1.80;99.90
13462;DHT22;6803;45.264;5.468;2023-01-26T04:41:18;1.80;99.90
13462;DHT22;6803;45.264;5.468;2023-01-26T04:43:49;1.80;99.90
13462;DHT22;6803;45.264;5.468;2023-01-26T04:46:20;1.80;99.90
13462;DHT22;6803;45.264;5.468;2023-01-26T04:48:51;1.80;99.90
13462;DHT22;6803;45.264;5.468;2023-01-26T04:51:22;1.80;99.90
13462;DHT22;6803;45.264;5.468;2023-01-26T04:53:53;1.80;99.90
13462;DHT22;6803;45.264;5.468;2023-01-26T04:56:25;1.80;99.90
13462;DHT22;6803;45.264;5.468;2023-01-26T04:58:58;1.80;99.90
13462;DHT22;6803;45.264;5.468;2023-01-26T05:01:29;1.80;99.90
13462;DHT22;6803;45.264;5.468;2023-01-26T05:04:01;1.70;99.90
13462;DHT22;6803;45.264;5.468;2023-01-26T05:06:33;1.80;99.90
13462;DHT22;6803;45.264;5.468;2023-01-26T05:09:04;1.70;99.90
13462;DHT22;6803;45.264;5.468;2023-01-26T05:14:13;1.70;99.90
13462;DHT22;6803;45.264;5.468;2023-01-26T05:16:44;1.70;99.90
13462;DHT22;6803;45.264;5.468;2023-01-26T05:19:15;1.60;99.90
13462;DHT22;6803;45.264;5.468;2023-01-26T05:21:46;1.70;99.90
13462;DHT22;6803;45.264;5.468;2023-01-26T05:24:16;1.70;99.90
13462;DHT22;6803;45.264;5.468;2023-01-26T05:26:47;1.70;99.90
13462;DHT22;6803;45.264;5.468;2023-01-26T05:29:20;1.70;99.90
13462;DHT22;6803;45.264;5.468;2023-01-26T05:31:50;1.70;99.90
13462;DHT22;6803;45.264;5.468;2023-01-26T05:34:21;1.70;99.90
13462;DHT22;6803;45.264;5.468;2023-01-26T05:36:52;1.60;99.90
13462;DHT22;6803;45.264;5.468;2023-01-26T05:39:23;1.60;99.90
13462;DHT22;6803;45.264;5.468;2023-01-26T05:41:54;1.60;99.90
13462;DHT22;6803;45.264;5.468;2023-01-26T05:44:25;1.60;99.90
13462;DHT22;6803;45.264;5.468;2023-01-26T05:46:57;1.70;99.90
13462;DHT22;6803;45.264;5.468;2023-01-26T05:49:28;1.60;99.90
13462;DHT22;6803;45.264;5.468;2023-01-26T05:54:37;1.60;99.90
13462;DHT22;6803;45.264;5.468;2023-01-26T05:59:47;1.60;99.90
13462;DHT22;6803;45.264;5.468;2023-01-26T06:02:18;1.60;99.90
13462;DHT22;6803;45.264;5.468;2023-01-26T06:04:49;1.60;99.90
13462;DHT22;6803;45.264;5.468;2023-01-26T06:07:19;1.60;99.90
13462;DHT22;6803;45.264;5.468;2023-01-26T06:09:50;1.60;99.90
13462;DHT22;6803;45.264;5.468;2023-01-26T06:12:21;1.60;99.90
13462;DHT22;6803;45.264;5.468;2023-01-26T06:14:52;1.60;99.90
13462;DHT22;6803;45.264;5.468;2023-01-26T06:17:23;1.60;99.90
13462;DHT22;6803;45.264;5.468;2023-01-26T06:19:54;1.60;99.90
13462;DHT22;6803;45.264;5.468;2023-01-26T06:22:25;1.60;99.90
13462;DHT22;6803;45.264;5.468;2023-01-26T06:24:55;1.60;99.90
13462;DHT22;6803;45.264;5.468;2023-01-26T06:27:26;1.60;99.90
13462;DHT22;6803;45.264;5.468;2023-01-26T06:29:57;1.60;99.90
13462;DHT22;6803;45.264;5.468;2023-01-26T06:32:28;1.60;99.90
13462;DHT22;6803;45.264;5.468;2023-01-26T06:34:59;1.50;99.90
13462;DHT22;6803;45.264;5.468;2023-01-26T06:37:30;1.50;99.90
13462;DHT22;6803;45.264;5.468;2023-01-26T06:40:01;1.60;99.90
13462;DHT22;6803;45.264;5.468;2023-01-26T06:42:32;1.60;99.90
13462;DHT22;6803;45.264;5.468;2023-01-26T06:45:04;1.60;99.90
13462;DHT22;6803;45.264;5.468;2023-01-26T06:47:35;1.60;99.90
13462;DHT22;6803;45.264;5.468;2023-01-26T06:50:08;1.70;99.90
13462;DHT22;6803;45.264;5.468;2023-01-26T06:52:44;1.70;99.90
13462;DHT22;6803;45.264;5.468;2023-01-26T06:55:17;1.60;99.90
13462;DHT22;6803;45.264;5.468;2023-01-26T06:57:49;1.60;99.90
13462;DHT22;6803;45.264;5.468;2023-01-26T07:00:22;1.60;99.90
13462;DHT22;6803;45.264;5.468;2023-01-26T07:02:53;1.60;99.90
13462;DHT22;6803;45.264;5.468;2023-01-26T07:05:24;1.60;99.90
13462;DHT22;6803;45.264;5.468;2023-01-26T07:07:54;1.60;99.90
13462;DHT22;6803;45.264;5.468;2023-01-26T07:10:25;1.60;99.90
13462;DHT22;6803;45.264;5.468;2023-01-26T07:12:56;1.60;99.90
13462;DHT22;6803;45.264;5.468;2023-01-26T07:15:27;1.60;99.90
13462;DHT22;6803;45.264;5.468;2023-01-26T07:17:58;1.60;99.90
13462;DHT22;6803;45.264;5.468;2023-01-26T07:20:29;1.60;99.90
13462;DHT22;6803;45.264;5.468;2023-01-26T07:23:00;1.60;99.90
13462;DHT22;6803;45.264;5.468;2023-01-26T07:25:31;1.60;99.90
13462;DHT22;6803;45.264;5.468;2023-01-26T07:28:01;1.50;99.90
13462;DHT22;6803;45.264;5.468;2023-01-26T07:30:32;1.50;99.90
13462;DHT22;6803;45.264;5.468;2023-01-26T07:33:03;1.50;99.90
13462;DHT22;6803;45.264;5.468;2023-01-26T07:35:34;1.60;99.90
13462;DHT22;6803;45.264;5.468;2023-01-26T07:38:04;1.60;99.90
13462;DHT22;6803;45.264;5.468;2023-01-26T07:40:35;1.60;99.90
13462;DHT22;6803;45.264;5.468;2023-01-26T07:43:06;1.60;99.90
13462;DHT22;6803;45.264;5.468;2023-01-26T07:45:37;1.60;99.90
13462;DHT22;6803;45.264;5.468;2023-01-26T07:48:08;1.60;99.90
13462;DHT22;6803;45.264;5.468;2023-01-26T07:50:38;1.60;99.90
13462;DHT22;6803;45.264;5.468;2023-01-26T07:53:09;1.60;99.90
13462;DHT22;6803;45.264;5.468;2023-01-26T07:55:41;1.60;99.90
13462;DHT22;6803;45.264;5.468;2023-01-26T07:58:12;1.60;99.90
13462;DHT22;6803;45.264;5.468;2023-01-26T08:00:43;1.60;99.90
13462;DHT22;6803;45.264;5.468;2023-01-26T08:03:15;1.60;99.90
13462;DHT22;6803;45.264;5.468;2023-01-26T08:05:46;1.60;99.90
13462;DHT22;6803;45.264;5.468;2023-01-26T08:08:16;1.60;99.90
13462;DHT22;6803;45.264;5.468;2023-01-26T08:10:47;1.60;99.90
13462;DHT22;6803;45.264;5.468;2023-01-26T08:13:18;1.60;99.90
13462;DHT22;6803;45.264;5.468;2023-01-26T08:15:50;1.60;99.90
13462;DHT22;6803;45.264;5.468;2023-01-26T08:18:21;1.70;99.90
13462;DHT22;6803;45.264;5.468;2023-01-26T08:20:53;1.70;99.90
13462;DHT22;6803;45.264;5.468;2023-01-26T08:23:24;1.70;99.90
13462;DHT22;6803;45.264;5.468;2023-01-26T08:25:54;1.70;99.90
13462;DHT22;6803;45.264;5.468;2023-01-26T08:28:27;1.70;99.90
13462;DHT22;6803;45.264;5.468;2023-01-26T08:31:02;1.70;99.90
13462;DHT22;6803;45.264;5.468;2023-01-26T08:33:34;1.70;99.90
13462;DHT22;6803;45.264;5.468;2023-01-26T08:36:07;1.70;99.90
13462;DHT22;6803;45.264;5.468;2023-01-26T08:38:38;1.70;99.90
13462;DHT22;6803;45.264;5.468;2023-01-26T08:41:27;1.70;99.90
13462;DHT22;6803;45.264;5.468;2023-01-26T08:43:59;1.70;99.90
13462;DHT22;6803;45.264;5.468;2023-01-26T08:46:30;1.70;99.90
13462;DHT22;6803;45.264;5.468;2023-01-26T08:49:01;1.70;99.90
13462;DHT22;6803;45.264;5.468;2023-01-26T08:51:32;1.70;99.90
13462;DHT22;6803;45.264;5.468;2023-01-26T08:54:04;1.70;99.90
13462;DHT22;6803;45.264;5.468;2023-01-26T08:56:36;1.70;99.90
13462;DHT22;6803;45.264;5.468;2023-01-26T08:59:08;1.70;99.90
13462;DHT22;6803;45.264;5.468;2023-01-26T09:01:38;1.70;99.90
13462;DHT22;6803;45.264;5.468;2023-01-26T09:04:09;1.70;99.90
13462;DHT22;6803;45.264;5.468;2023-01-26T09:06:40;1.70;99.90
13462;DHT22;6803;45.264;5.468;2023-01-26T09:09:11;1.80;99.90
13462;DHT22;6803;45.264;5.468;2023-01-26T09:11:43;1.80;99.90
13462;DHT22;6803;45.264;5.468;2023-01-26T09:14:14;1.80;99.90
13462;DHT22;6803;45.264;5.468;2023-01-26T09:16:44;1.80;99.90
13462;DHT22;6803;45.264;5.468;2023-01-26T09:19:15;1.80;99.90
13462;DHT22;6803;45.264;5.468;2023-01-26T09:21:46;1.80;99.90
13462;DHT22;6803;45.264;5.468;2023-01-26T09:24:20;1.80;99.90
13462;DHT22;6803;45.264;5.468;2023-01-26T09:26:51;1.70;99.90
13462;DHT22;6803;45.264;5.468;2023-01-26T09:29:22;1.80;99.90
13462;DHT22;6803;45.264;5.468;2023-01-26T09:31:52;1.70;99.90
13462;DHT22;6803;45.264;5.468;2023-01-26T09:34:23;1.80;99.90
13462;DHT22;6803;45.264;5.468;2023-01-26T09:36:54;1.80;99.90
13462;DHT22;6803;45.264;5.468;2023-01-26T09:39:25;1.80;99.90
13462;DHT22;6803;45.264;5.468;2023-01-26T09:45:05;1.80;99.90
13462;DHT22;6803;45.264;5.468;2023-01-26T09:47:40;1.80;99.90
13462;DHT22;6803;45.264;5.468;2023-01-26T09:50:13;1.80;99.90
13462;DHT22;6803;45.264;5.468;2023-01-26T09:52:48;1.80;99.90
13462;DHT22;6803;45.264;5.468;2023-01-26T09:55:21;1.90;99.90
13462;DHT22;6803;45.264;5.468;2023-01-26T09:57:56;1.90;99.90
13462;DHT22;6803;45.264;5.468;2023-01-26T10:00:29;1.90;99.90
13462;DHT22;6803;45.264;5.468;2023-01-26T10:03:07;1.90;99.90
13462;DHT22;6803;45.264;5.468;2023-01-26T10:05:42;1.90;99.90
13462;DHT22;6803;45.264;5.468;2023-01-26T10:08:15;1.90;99.90
13462;DHT22;6803;45.264;5.468;2023-01-26T10:10:49;1.90;99.90
13462;DHT22;6803;45.264;5.468;2023-01-26T10:13:21;1.90;99.90
13462;DHT22;6803;45.264;5.468;2023-01-26T10:15:56;1.90;99.90
13462;DHT22;6803;45.264;5.468;2023-01-26T10:18:30;1.90;99.90
13462;DHT22;6803;45.264;5.468;2023-01-26T10:21:03;1.90;99.90
13462;DHT22;6803;45.264;5.468;2023-01-26T10:23:35;1.90;99.90
13462;DHT22;6803;45.264;5.468;2023-01-26T10:26:12;1.90;99.90
13462;DHT22;6803;45.264;5.468;2023-01-26T10:28:45;1.90;99.90
13462;DHT22;6803;45.264;5.468;2023-01-26T10:31:19;1.90;99.90
13462;DHT22;6803;45.264;5.468;2023-01-26T10:33:52;1.90;99.90
13462;DHT22;6803;45.264;5.468;2023-01-26T10:36:26;1.90;99.90
13462;DHT22;6803;45.264;5.468;2023-01-26T10:39:03;1.90;99.90
13462;DHT22;6803;45.264;5.468;2023-01-26T10:41:34;1.90;99.90
13462;DHT22;6803;45.264;5.468;2023-01-26T10:44:21;1.90;99.90
13462;DHT22;6803;45.264;5.468;2023-01-26T10:47:05;1.90;99.90
13462;DHT22;6803;45.264;5.468;2023-01-26T10:49:36;1.90;99.90
13462;DHT22;6803;45.264;5.468;2023-01-26T10:52:13;1.90;99.90
13462;DHT22;6803;45.264;5.468;2023-01-26T10:54:41;1.90;99.90
13462;DHT22;6803;45.264;5.468;2023-01-26T10:57:23;2.00;99.90
13462;DHT22;6803;45.264;5.468;2023-01-26T10:59:56;2.00;99.90
13462;DHT22;6803;45.264;5.468;2023-01-26T11:02:29;2.00;99.90
13462;DHT22;6803;45.264;5.468;2023-01-26T11:08:02;2.00;99.90
13462;DHT22;6803;45.264;5.468;2023-01-26T11:10:36;2.00;99.90
13462;DHT22;6803;45.264;5.468;2023-01-26T11:13:12;2.00;99.90
13462;DHT22;6803;45.264;5.468;2023-01-26T11:15:46;2.00;99.90
13462;DHT22;6803;45.264;5.468;2023-01-26T11:18:25;2.00;99.90
13462;DHT22;6803;45.264;5.468;2023-01-26T11:20:57;2.00;99.90
13462;DHT22;6803;45.264;5.468;2023-01-26T11:23:50;2.00;99.90
13462;DHT22;6803;45.264;5.468;2023-01-26T11:26:47;2.00;99.90
13462;DHT22;6803;45.264;5.468;2023-01-26T11:32:21;2.10;99.90
13462;DHT22;6803;45.264;5.468;2023-01-26T11:34:59;2.10;99.90
13462;DHT22;6803;45.264;5.468;2023-01-26T11:37:45;2.00;99.90
13462;DHT22;6803;45.264;5.468;2023-01-26T11:40:25;2.10;99.90
13462;DHT22;6803;45.264;5.468;2023-01-26T11:46:14;2.10;99.90
13462;DHT22;6803;45.264;5.468;2023-01-26T11:48:52;2.10;99.90
13462;DHT22;6803;45.264;5.468;2023-01-26T11:51:29;2.20;99.90
13462;DHT22;6803;45.264;5.468;2023-01-26T11:54:29;2.20;99.90
13462;DHT22;6803;45.264;5.468;2023-01-26T11:57:05;2.20;99.90
13462;DHT22;6803;45.264;5.468;2023-01-26T11:59:39;2.20;99.90
13462;DHT22;6803;45.264;5.468;2023-01-26T12:02:22;2.20;99.90
13462;DHT22;6803;45.264;5.468;2023-01-26T12:04:56;2.30;99.90
13462;DHT22;6803;45.264;5.468;2023-01-26T12:07:32;2.20;99.90
13462;DHT22;6803;45.264;5.468;2023-01-26T12:10:11;2.30;99.90
13462;DHT22;6803;45.264;5.468;2023-01-26T12:12:45;2.20;99.90
13462;DHT22;6803;45.264;5.468;2023-01-26T12:15:18;2.20;99.90
13462;DHT22;6803;45.264;5.468;2023-01-26T12:17:53;2.20;99.90
13462;DHT22;6803;45.264;5.468;2023-01-26T12:20:28;2.10;99.90
13462;DHT22;6803;45.264;5.468;2023-01-26T12:23:03;2.10;99.90
13462;DHT22;6803;45.264;5.468;2023-01-26T12:25:36;2.10;99.90
13462;DHT22;6803;45.264;5.468;2023-01-26T12:28:19;2.00;99.90
13462;DHT22;6803;45.264;5.468;2023-01-26T12:30:56;2.10;99.90
13462;DHT22;6803;45.264;5.468;2023-01-26T12:33:27;2.10;99.90
13462;DHT22;6803;45.264;5.468;2023-01-26T12:36:10;2.10;99.90
13462;DHT22;6803;45.264;5.468;2023-01-26T12:38:48;2.10;99.90
13462;DHT22;6803;45.264;5.468;2023-01-26T12:41:21;2.10;99.90
13462;DHT22;6803;45.264;5.468;2023-01-26T12:44:02;2.10;99.90
13462;DHT22;6803;45.264;5.468;2023-01-26T12:46:35;2.20;99.90
13462;DHT22;6803;45.264;5.468;2023-01-26T12:49:10;2.20;99.90
13462;DHT22;6803;45.264;5.468;2023-01-26T12:51:44;2.20;99.90
13462;DHT22;6803;45.264;5.468;2023-01-26T12:54:18;2.30;99.90
13462;DHT22;6803;45.264;5.468;2023-01-26T12:56:51;2.30;99.90
13462;DHT22;6803;45.264;5.468;2023-01-26T12:59:26;2.30;99.90
13462;DHT22;6803;45.264;5.468;2023-01-26T13:02:00;2.30;99.90
13462;DHT22;6803;45.264;5.468;2023-01-26T13:04:32;2.20;99.90
13462;DHT22;6803;45.264;5.468;2023-01-26T13:07:24;2.20;99.90
13462;DHT22;6803;45.264;5.468;2023-01-26T13:09:36;2.20;99.90
13462;DHT22;6803;45.264;5.468;2023-01-26T13:12:13;2.20;99.90
13462;DHT22;6803;45.264;5.468;2023-01-26T13:17:58;2.20;99.90
13462;DHT22;6803;45.264;5.468;2023-01-26T13:23:41;2.20;99.90
13462;DHT22;6803;45.264;5.468;2023-01-26T13:26:16;2.20;99.90
13462;DHT22;6803;45.264;5.468;2023-01-26T13:28:48;2.20;99.90
13462;DHT22;6803;45.264;5.468;2023-01-26T13:31:33;2.20;99.90
13462;DHT22;6803;45.264;5.468;2023-01-26T13:34:06;2.20;99.90
13462;DHT22;6803;45.264;5.468;2023-01-26T13:36:39;2.10;99.90
13462;DHT22;6803;45.264;5.468;2023-01-26T13:39:15;2.20;99.90
13462;DHT22;6803;45.264;5.468;2023-01-26T13:41:47;2.10;99.90
13462;DHT22;6803;45.264;5.468;2023-01-26T13:44:20;2.10;99.90
13462;DHT22;6803;45.264;5.468;2023-01-26T13:46:54;2.10;99.90
13462;DHT22;6803;45.264;5.468;2023-01-26T13:49:35;2.10;99.90
13462;DHT22;6803;45.264;5.468;2023-01-26T13:51:59;2.10;99.90
13462;DHT22;6803;45.264;5.468;2023-01-26T13:54:29;2.10;99.90
13462;DHT22;6803;45.264;5.468;2023-01-26T13:57:02;2.10;99.90
13462;DHT22;6803;45.264;5.468;2023-01-26T13:59:33;2.10;99.90
13462;DHT22;6803;45.264;5.468;2023-01-26T14:02:20;2.10;99.90
13462;DHT22;6803;45.264;5.468;2023-01-26T14:04:54;2.00;99.90
13462;DHT22;6803;45.264;5.468;2023-01-26T14:07:27;2.10;99.90
13462;DHT22;6803;45.264;5.468;2023-01-26T14:10:00;2.00;99.90
13462;DHT22;6803;45.264;5.468;2023-01-26T14:12:34;2.00;99.90
13462;DHT22;6803;45.264;5.468;2023-01-26T14:15:18;2.00;99.90
13462;DHT22;6803;45.264;5.468;2023-01-26T14:17:49;2.00;99.90
13462;DHT22;6803;45.264;5.468;2023-01-26T14:20:24;2.00;99.90
13462;DHT22;6803;45.264;5.468;2023-01-26T14:23:14;2.00;99.90
13462;DHT22;6803;45.264;5.468;2023-01-26T14:25:48;2.00;99.90
13462;DHT22;6803;45.264;5.468;2023-01-26T14:28:21;2.00;99.90
13462;DHT22;6803;45.264;5.468;2023-01-26T14:30:56;2.10;99.90
13462;DHT22;6803;45.264;5.468;2023-01-26T14:33:27;2.10;99.90
13462;DHT22;6803;45.264;5.468;2023-01-26T14:36:00;2.10;99.90
13462;DHT22;6803;45.264;5.468;2023-01-26T14:38:39;2.00;99.90
13462;DHT22;6803;45.264;5.468;2023-01-26T14:41:16;2.00;99.90
13462;DHT22;6803;45.264;5.468;2023-01-26T14:43:48;2.00;99.90
13462;DHT22;6803;45.264;5.468;2023-01-26T14:46:25;2.00;99.90
13462;DHT22;6803;45.264;5.468;2023-01-26T14:49:00;2.00;99.90
13462;DHT22;6803;45.264;5.468;2023-01-26T14:51:31;2.00;99.90
13462;DHT22;6803;45.264;5.468;2023-01-26T14:54:08;2.00;99.90
13462;DHT22;6803;45.264;5.468;2023-01-26T14:56:39;2.00;99.90
13462;DHT22;6803;45.264;5.468;2023-01-26T14:59:17;2.00;99.90
13462;DHT22;6803;45.264;5.468;2023-01-26T15:01:48;2.00;99.90
13462;DHT22;6803;45.264;5.468;2023-01-26T15:04:23;2.00;99.90
13462;DHT22;6803;45.264;5.468;2023-01-26T15:06:54;2.00;99.90
13462;DHT22;6803;45.264;5.468;2023-01-26T15:09:27;2.00;99.90
13462;DHT22;6803;45.264;5.468;2023-01-26T15:11:59;2.00;99.90
13462;DHT22;6803;45.264;5.468;2023-01-26T15:14:50;2.00;99.90
13462;DHT22;6803;45.264;5.468;2023-01-26T15:17:36;2.00;99.90
13462;DHT22;6803;45.264;5.468;2023-01-26T15:20:38;2.00;99.90
13462;DHT22;6803;45.264;5.468;2023-01-26T15:23:27;2.00;99.90
13462;DHT22;6803;45.264;5.468;2023-01-26T15:26:05;2.00;99.90
13462;DHT22;6803;45.264;5.468;2023-01-26T15:28:37;2.00;99.90
13462;DHT22;6803;45.264;5.468;2023-01-26T15:31:28;2.00;99.90
13462;DHT22;6803;45.264;5.468;2023-01-26T15:34:00;2.00;99.90
13462;DHT22;6803;45.264;5.468;2023-01-26T15:36:33;2.00;99.90
13462;DHT22;6803;45.264;5.468;2023-01-26T15:39:11;2.00;99.90
13462;DHT22;6803;45.264;5.468;2023-01-26T15:41:43;2.00;99.90
13462;DHT22;6803;45.264;5.468;2023-01-26T15:44:16;2.00;99.90
13462;DHT22;6803;45.264;5.468;2023-01-26T15:46:47;2.00;99.90
13462;DHT22;6803;45.264;5.468;2023-01-26T15:49:17;2.00;99.90
13462;DHT22;6803;45.264;5.468;2023-01-26T15:51:50;2.00;99.90
13462;DHT22;6803;45.264;5.468;2023-01-26T15:54:22;1.90;99.90
13462;DHT22;6803;45.264;5.468;2023-01-26T15:56:53;1.90;99.90
13462;DHT22;6803;45.264;5.468;2023-01-26T15:59:23;1.90;99.90
13462;DHT22;6803;45.264;5.468;2023-01-26T16:01:55;1.90;99.90
13462;DHT22;6803;45.264;5.468;2023-01-26T16:04:26;2.00;99.90
13462;DHT22;6803;45.264;5.468;2023-01-26T16:06:57;1.90;99.90
13462;DHT22;6803;45.264;5.468;2023-01-26T16:09:28;1.90;99.90
13462;DHT22;6803;45.264;5.468;2023-01-26T16:14:37;1.80;99.90
13462;DHT22;6803;45.264;5.468;2023-01-26T16:17:13;1.90;99.90
13462;DHT22;6803;45.264;5.468;2023-01-26T16:19:44;1.90;99.90
13462;DHT22;6803;45.264;5.468;2023-01-26T16:22:15;1.90;99.90
13462;DHT22;6803;45.264;5.468;2023-01-26T16:24:46;1.80;99.90
13462;DHT22;6803;45.264;5.468;2023-01-26T16:27:17;1.80;99.90
13462;DHT22;6803;45.264;5.468;2023-01-26T16:29:49;1.80;99.90
13462;DHT22;6803;45.264;5.468;2023-01-26T16:32:25;1.80;99.90
13462;DHT22;6803;45.264;5.468;2023-01-26T16:34:56;1.80;99.90
13462;DHT22;6803;45.264;5.468;2023-01-26T16:37:27;1.80;99.90
13462;DHT22;6803;45.264;5.468;2023-01-26T16:39:58;1.80;99.90
13462;DHT22;6803;45.264;5.468;2023-01-26T16:42:28;1.80;99.90
13462;DHT22;6803;45.264;5.468;2023-01-26T16:45:00;1.90;99.90
13462;DHT22;6803;45.264;5.468;2023-01-26T16:47:33;1.80;99.90
13462;DHT22;6803;45.264;5.468;2023-01-26T16:50:05;1.80;99.90
13462;DHT22;6803;45.264;5.468;2023-01-26T16:52:36;1.80;99.90
13462;DHT22;6803;45.264;5.468;2023-01-26T16:55:09;1.80;99.90
13462;DHT22;6803;45.264;5.468;2023-01-26T16:57:43;1.70;99.90
13462;DHT22;6803;45.264;5.468;2023-01-26T17:00:16;1.70;99.90
13462;DHT22;6803;45.264;5.468;2023-01-26T17:02:49;1.80;99.90
13462;DHT22;6803;45.264;5.468;2023-01-26T17:05:21;1.70;99.90
13462;DHT22;6803;45.264;5.468;2023-01-26T17:07:52;1.70;99.90
13462;DHT22;6803;45.264;5.468;2023-01-26T17:10:23;1.70;99.90
13462;DHT22;6803;45.264;5.468;2023-01-26T17:12:53;1.70;99.90
13462;DHT22;6803;45.264;5.468;2023-01-26T17:15:24;1.80;99.90
13462;DHT22;6803;45.264;5.468;2023-01-26T17:17:57;1.70;99.90